aviador You're here:

LFQB Decoded Metar

TROYES in FRANCE
Report Time2018-06-17 21:30:00
UTC Time2018-06-17 21:57:27
Flight Rules vfr VFR
Wind260° at 06 kt
W.Decomp.*RWY 23: 5.2 kt HW 3.0 kt RCW
RWY 17: 6.0 kt RCW
W.Rank260° ranks 16
Current wind is below 260° avg. (9.4)
Visibility9999 m
Phenomena:N/A
Clouds:N/A
Expected CloudBase > 1,200 ft AGL from Temp-Dew spread
CeilingNone
Temp14°C (ISA -0)
Dew Point11°C (82% RH)
AAT12.2°C
QNH1022 hPa
Density Alt233 ft
Elevation387 ft
Report Wrong Elevation
Raw Report
METAR LFQB 172130Z AUTO 26006KT 9999 ////// 14/11 Q1022=

Extra information for LFQB:More info

Metar Taf Metar & Taf Last 4 Metars F.Rules Stats Wind Profile Meteogram Temp Stats Airport Information Weather charts Add Link Nearby VenuesMetar ALERT Operation Metar Decoded Social comments